Time;durP1;ratioP1;P1;durP2;ratioP2;P2;SDS_P1;SDS_P2;PMS_P1;PMS_P2;Temp;Humidity;BMP_temperature;BMP_pressure;BME280_temperature;BME280_humidity;BME280_pressure;Samples;Min_cycle;Max_cycle;Signal;HPM_P1;HPM_P2
2021/10/29 00:00:06;;;;;;;7.25;4.00;;;;;;;3.15;77.01;97453.47;5096024;28;20036;-61
2021/10/29 00:02:32;;;;;;;4.97;3.75;;;;;;;3.14;76.67;97450.88;5096063;28;20032;-60
2021/10/29 00:04:58;;;;;;;5.20;4.00;;;;;;;3.12;76.42;97450.88;5095989;28;20020;-62
2021/10/29 00:07:24;;;;;;;6.50;3.72;;;;;;;3.11;76.23;97443.09;5095995;28;20028;-64
2021/10/29 00:09:50;;;;;;;5.85;3.70;;;;;;;3.06;76.48;97439.63;5095993;28;20020;-62
2021/10/29 00:12:18;;;;;;;5.50;3.55;;;;;;;3.08;75.74;97440.50;5095572;28;20103;-63
2021/10/29 00:14:44;;;;;;;5.95;3.55;;;;;;;3.04;75.33;97434.44;5095860;28;20044;-64
2021/10/29 00:17:09;;;;;;;6.45;3.58;;;;;;;3.04;75.49;97434.44;5095863;28;20031;-62
2021/10/29 00:19:35;;;;;;;8.10;3.45;;;;;;;3.05;75.28;97437.88;5095680;28;20028;-64
2021/10/29 00:22:01;;;;;;;9.38;4.78;;;;;;;3.03;75.37;97440.47;5095745;28;20103;-63
2021/10/29 00:24:27;;;;;;;7.80;4.68;;;;;;;2.87;76.20;97436.91;5095619;28;20445;-65
2021/10/29 00:26:53;;;;;;;7.03;3.90;;;;;;;2.82;76.65;97433.41;5095657;28;20111;-61
2021/10/29 00:29:20;;;;;;;5.82;4.32;;;;;;;2.75;76.90;97429.94;5095693;28;20058;-64
2021/10/29 00:31:46;;;;;;;6.32;4.07;;;;;;;2.74;76.77;97428.22;5095707;28;20111;-61
2021/10/29 00:34:12;;;;;;;8.00;5.20;;;;;;;2.74;76.64;97423.06;5095568;28;20025;-63
2021/10/29 00:36:38;;;;;;;6.82;4.35;;;;;;;2.71;76.13;97421.28;5095490;28;20024;-64
2021/10/29 00:39:03;;;;;;;7.00;4.07;;;;;;;2.70;76.47;97423.84;5095334;28;20385;-64
2021/10/29 00:41:29;;;;;;;4.45;3.35;;;;;;;2.68;76.22;97421.25;5095284;28;20023;-62
2021/10/29 00:43:58;;;;;;;6.35;3.70;;;;;;;2.64;76.16;97425.56;5095271;28;20028;-65
2021/10/29 00:46:24;;;;;;;10.07;4.10;;;;;;;2.59;76.49;97421.22;5095263;28;20169;-62
2021/10/29 00:48:51;;;;;;;5.68;4.00;;;;;;;2.52;76.60;97418.56;5095322;28;20166;-64
2021/10/29 00:51:18;;;;;;;8.48;4.45;;;;;;;2.53;76.71;97424.63;5095135;28;20370;-63
2021/10/29 00:53:44;;;;;;;7.65;3.47;;;;;;;2.52;76.56;97418.56;5095113;28;20039;-62
2021/10/29 00:56:10;;;;;;;5.07;3.75;;;;;;;2.51;76.67;97416.84;5095018;28;20024;-64
2021/10/29 00:58:36;;;;;;;6.93;3.58;;;;;;;2.48;76.78;97413.38;5094842;28;20040;-64
2021/10/29 01:01:03;;;;;;;8.35;4.57;;;;;;;2.48;76.88;97413.38;5095051;28;20016;-63
2021/10/29 01:03:29;;;;;;;6.30;4.10;;;;;;;2.46;76.85;97410.75;5094744;28;20032;-65
2021/10/29 01:05:54;;;;;;;5.05;3.72;;;;;;;2.51;77.05;97410.81;5094930;28;20030;-63
2021/10/29 01:08:20;;;;;;;6.90;3.88;;;;;;;2.50;76.82;97409.09;5094990;28;20032;-62
2021/10/29 01:10:47;;;;;;;7.50;4.32;;;;;;;2.49;76.82;97415.97;5094839;28;20027;-61
2021/10/29 01:13:13;;;;;;;7.72;3.42;;;;;;;2.48;76.69;97401.31;5094704;28;20595;-63
2021/10/29 01:15:38;;;;;;;7.70;3.85;;;;;;;2.49;76.34;97397.88;5094634;28;20103;-64
2021/10/29 01:18:04;;;;;;;5.30;3.70;;;;;;;2.46;76.06;97399.56;5094680;28;20024;-62
2021/10/29 01:20:30;;;;;;;5.63;4.55;;;;;;;2.44;76.80;97389.22;5094626;28;20024;-60
2021/10/29 01:22:56;;;;;;;5.43;4.18;;;;;;;2.39;77.21;97393.50;5093695;28;20023;-63
2021/10/29 01:25:21;;;;;;;8.57;5.15;;;;;;;2.36;77.33;97399.50;5094435;28;20522;-65
2021/10/29 01:27:47;;;;;;;7.32;4.90;;;;;;;2.34;77.57;97396.03;5094440;28;20051;-66
2021/10/29 01:30:13;;;;;;;6.88;4.68;;;;;;;2.32;77.45;97394.28;5094421;28;20371;-62
2021/10/29 01:32:39;;;;;;;5.95;4.30;;;;;;;2.36;77.66;97385.72;5094368;28;20047;-63
2021/10/29 01:35:11;;;;;;;5.47;4.45;;;;;;;2.27;77.51;97389.97;5094355;28;20025;-64
2021/10/29 01:37:39;;;;;;;7.65;5.45;;;;;;;2.26;77.25;97384.78;5094283;28;20381;-65
2021/10/29 01:40:13;;;;;;;7.32;6.20;;;;;;;2.20;76.95;97374.41;5094208;28;20385;-64
2021/10/29 01:42:39;;;;;;;10.13;5.20;;;;;;;2.17;76.94;97376.94;5094151;28;20023;-64
2021/10/29 01:45:06;;;;;;;6.22;5.55;;;;;;;2.06;77.89;97372.56;5094122;28;20103;-64
2021/10/29 01:47:33;;;;;;;6.88;5.25;;;;;;;2.05;77.95;97383.75;5094020;28;20028;-65
2021/10/29 01:49:59;;;;;;;6.13;4.72;;;;;;;2.02;78.50;97383.72;5094005;28;20074;-61
2021/10/29 01:52:25;;;;;;;9.90;5.45;;;;;;;2.06;78.26;97379.44;5094161;28;20115;-61
2021/10/29 01:54:50;;;;;;;7.10;5.88;;;;;;;2.08;77.95;97382.91;5093977;28;20094;-66
2021/10/29 01:57:16;;;;;;;6.78;4.75;;;;;;;2.02;78.26;97387.13;5093894;28;20024;-64
2021/10/29 01:59:42;;;;;;;8.50;5.72;;;;;;;1.96;78.85;97381.91;5093539;28;20052;-65
2021/10/29 02:02:08;;;;;;;6.05;5.40;;;;;;;1.97;78.82;97388.81;5093827;28;20052;-62
2021/10/29 02:04:33;;;;;;;9.07;4.88;;;;;;;2.00;78.29;97394.03;5093722;28;20489;-65
2021/10/29 02:06:59;;;;;;;9.57;4.50;;;;;;;1.93;78.35;97393.94;5093944;28;20048;-66
2021/10/29 02:09:24;;;;;;;11.73;5.57;;;;;;;1.92;79.02;97399.97;5093804;28;20032;-62
2021/10/29 02:11:50;;;;;;;8.48;5.35;;;;;;;1.96;79.03;97393.97;5093704;28;20593;-60
2021/10/29 02:14:15;;;;;;;9.88;5.97;;;;;;;1.94;79.37;97385.34;5093514;28;20028;-65
2021/10/29 02:16:42;;;;;;;10.25;6.03;;;;;;;1.94;80.60;97395.66;5093582;28;20116;-64
2021/10/29 02:19:07;;;;;;;9.98;6.68;;;;;;;1.94;81.42;97390.50;5093517;28;20481;-62
2021/10/29 02:21:33;;;;;;;12.57;6.43;;;;;;;2.05;81.40;97388.03;5093469;28;20023;-63
2021/10/29 02:23:59;;;;;;;12.48;6.25;;;;;;;2.11;80.16;97388.94;5093541;28;20035;-61
2021/10/29 02:26:25;;;;;;;10.18;6.57;;;;;;;2.17;79.54;97384.69;5093417;28;20031;-63
2021/10/29 02:28:52;;;;;;;9.38;6.53;;;;;;;2.22;79.70;97383.00;5093349;28;20099;-62
2021/10/29 02:31:18;;;;;;;7.30;6.30;;;;;;;2.23;79.34;97392.50;5093463;28;20077;-65
2021/10/29 02:33:43;;;;;;;6.55;5.15;;;;;;;2.22;79.21;97391.63;5093462;28;20021;-64
2021/10/29 02:36:09;;;;;;;8.18;5.85;;;;;;;2.21;78.89;97392.50;5093166;28;20024;-63
2021/10/29 02:38:35;;;;;;;14.35;6.38;;;;;;;2.24;78.52;97395.09;5093364;28;20068;-60
2021/10/29 02:41:02;;;;;;;7.57;5.82;;;;;;;2.26;78.22;97380.47;5093304;28;20058;-64
2021/10/29 02:43:28;;;;;;;8.60;6.43;;;;;;;2.27;77.94;97394.25;5093085;28;20081;-63
2021/10/29 02:45:54;;;;;;;7.82;6.05;;;;;;;2.22;77.98;97391.63;5093165;28;20032;-63
2021/10/29 02:48:19;;;;;;;7.15;5.68;;;;;;;2.23;77.80;97397.66;5093254;28;20028;-61
2021/10/29 02:50:45;;;;;;;8.73;6.38;;;;;;;2.22;78.14;97391.63;5093091;28;20028;-63
2021/10/29 02:53:11;;;;;;;11.07;6.60;;;;;;;2.14;78.43;97395.88;5093252;28;20024;-62
2021/10/29 02:55:36;;;;;;;9.07;6.47;;;;;;;2.07;78.30;97394.94;5093177;28;20157;-61
2021/10/29 02:58:03;;;;;;;8.80;6.20;;;;;;;2.01;78.33;97390.56;5093234;28;20118;-63
2021/10/29 03:00:29;;;;;;;9.25;6.63;;;;;;;1.97;78.49;97387.94;5092901;28;20123;-61
2021/10/29 03:02:54;;;;;;;11.65;6.72;;;;;;;1.99;78.58;97391.41;5092991;28;20154;-64
2021/10/29 03:05:20;;;;;;;8.25;6.25;;;;;;;1.96;78.51;97392.22;5093034;28;20046;-63
2021/10/29 03:07:46;;;;;;;8.68;6.63;;;;;;;1.91;78.58;97390.47;5093021;28;20105;-61
2021/10/29 03:10:13;;;;;;;12.90;6.95;;;;;;;1.91;78.65;97385.31;5092974;28;20044;-62
2021/10/29 03:12:39;;;;;;;13.02;7.07;;;;;;;1.82;79.25;97384.38;5093020;28;20020;-62
2021/10/29 03:15:08;;;;;;;11.65;7.57;;;;;;;1.84;79.18;97376.66;5093070;28;20113;-64
2021/10/29 03:17:34;;;;;;;11.40;7.00;;;;;;;1.88;78.88;97379.28;5093058;28;20478;-62
2021/10/29 03:19:59;;;;;;;9.18;6.70;;;;;;;1.94;78.36;97383.63;5092952;28;20031;-64
2021/10/29 03:22:25;;;;;;;14.35;7.00;;;;;;;1.95;78.61;97374.16;5093040;28;20073;-61
2021/10/29 03:24:51;;;;;;;9.45;6.75;;;;;;;1.95;78.48;97380.19;5092908;28;20378;-64
2021/10/29 03:27:18;;;;;;;8.98;6.90;;;;;;;1.85;78.66;97386.97;5092842;28;20032;-65
2021/10/29 03:29:44;;;;;;;11.15;7.18;;;;;;;1.87;79.02;97384.41;5092798;28;20479;-63
2021/10/29 03:32:09;;;;;;;10.18;6.97;;;;;;;1.88;78.64;97381.84;5092771;28;20099;-63
2021/10/29 03:34:35;;;;;;;9.13;6.53;;;;;;;1.91;77.85;97387.88;5093050;28;20027;-62
2021/10/29 03:37:03;;;;;;;8.65;6.25;;;;;;;1.91;78.01;97383.59;5092847;28;20024;-65
2021/10/29 03:39:38;;;;;;;13.00;7.68;;;;;;;1.88;78.28;97381.84;5092683;28;20081;-65
2021/10/29 03:42:11;;;;;;;12.48;6.68;;;;;;;1.84;77.92;97385.22;5092766;28;20032;-62
2021/10/29 03:47:05;;;;;;;10.80;7.10;;;;;;;1.75;78.93;97387.75;5094440;28;20028;-67
2021/10/29 03:49:54;;;;;;;12.23;6.95;;;;;;;1.81;78.98;97389.50;5096354;28;20164;-64
2021/10/29 03:52:30;;;;;;;12.20;7.20;;;;;;;1.71;78.83;97389.41;5095963;28;20382;-65
2021/10/29 03:54:58;;;;;;;9.82;6.65;;;;;;;1.71;79.12;97389.41;5096358;28;20104;-65
2021/10/29 03:57:25;;;;;;;17.63;7.60;;;;;;;1.67;78.89;97381.63;5096228;28;20137;-64
2021/10/29 03:59:52;;;;;;;11.68;7.43;;;;;;;1.64;79.53;97385.91;5096128;28;20040;-66
2021/10/29 04:02:18;;;;;;;15.02;7.32;;;;;;;1.62;78.83;97381.56;5096141;28;20028;-62
2021/10/29 04:04:44;;;;;;;14.70;7.68;;;;;;;1.56;79.84;97371.19;5095927;28;20046;-64
2021/10/29 04:07:10;;;;;;;10.95;7.18;;;;;;;1.62;79.64;97378.97;5096130;28;20388;-65
2021/10/29 04:09:36;;;;;;;11.35;7.60;;;;;;;1.63;79.52;97368.69;5096042;28;20016;-63
2021/10/29 04:12:02;;;;;;;11.45;8.35;;;;;;;1.62;79.44;97368.66;5096015;28;20036;-64
2021/10/29 04:14:28;;;;;;;12.63;8.13;;;;;;;1.59;79.66;97371.19;5095891;28;20028;-67
2021/10/29 04:16:54;;;;;;;12.02;7.88;;;;;;;1.59;79.24;97369.50;5095866;28;20028;-65
2021/10/29 04:19:19;;;;;;;15.68;10.68;;;;;;;1.57;79.78;97370.34;5095747;28;20020;-63
2021/10/29 04:21:45;;;;;;;13.02;9.35;;;;;;;1.62;78.95;97366.09;5095796;28;20031;-65
2021/10/29 04:24:11;;;;;;;19.90;14.43;;;;;;;1.61;78.52;97366.94;5095754;28;20030;-65
2021/10/29 04:26:37;;;;;;;16.67;11.30;;;;;;;1.65;78.46;97373.84;5095627;28;20016;-65
2021/10/29 04:29:13;;;;;;;13.07;7.32;;;;;;;1.61;78.38;97365.22;5095552;28;20098;-64
2021/10/29 04:31:50;;;;;;;11.88;8.32;;;;;;;1.61;78.77;97367.81;5095757;28;20031;-64
2021/10/29 04:34:25;;;;;;;11.30;7.53;;;;;;;1.63;79.26;97378.16;5095609;28;20110;-63
2021/10/29 04:36:53;;;;;;;14.35;8.55;;;;;;;1.66;79.19;97383.34;5095537;28;20024;-65
2021/10/29 04:39:20;;;;;;;14.90;10.27;;;;;;;1.63;79.05;97378.16;5095400;28;20020;-64
2021/10/29 04:41:50;;;;;;;12.90;9.90;;;;;;;1.66;79.29;97378.19;5095268;28;20020;-64
2021/10/29 04:44:17;;;;;;;11.02;6.47;;;;;;;1.67;79.38;97382.50;5095266;28;20107;-62
2021/10/29 04:46:43;;;;;;;11.55;7.55;;;;;;;1.70;79.05;97381.66;5095426;28;20032;-63
2021/10/29 04:49:09;;;;;;;12.57;8.25;;;;;;;1.67;79.36;97387.66;5095271;28;20028;-66
2021/10/29 04:51:35;;;;;;;11.73;8.60;;;;;;;1.65;79.18;97389.34;5095085;28;20501;-66
2021/10/29 04:54:01;;;;;;;12.30;7.43;;;;;;;1.54;80.09;97389.22;5095226;28;20017;-66
2021/10/29 04:56:27;;;;;;;12.07;8.27;;;;;;;1.58;80.11;97391.00;5095211;28;20020;-65
2021/10/29 04:58:53;;;;;;;21.25;8.95;;;;;;;1.66;80.88;97379.91;5094763;28;20051;-66
2021/10/29 05:01:18;;;;;;;12.10;8.02;;;;;;;1.67;80.90;97382.50;5094972;28;20477;-65
2021/10/29 05:03:44;;;;;;;13.18;9.13;;;;;;;1.78;80.52;97382.63;5094923;28;20119;-66
2021/10/29 05:06:10;;;;;;;11.32;8.27;;;;;;;1.82;80.63;97391.22;5094846;28;20024;-63
2021/10/29 05:08:37;;;;;;;19.27;7.60;;;;;;;1.91;79.98;97398.19;5094820;28;20016;-63
2021/10/29 05:11:04;;;;;;;18.23;8.57;;;;;;;1.94;79.91;97395.66;5094819;28;20027;-65
2021/10/29 05:13:29;;;;;;;11.40;7.95;;;;;;;1.96;79.43;97399.97;5094672;28;20397;-64
2021/10/29 05:15:55;;;;;;;13.85;8.98;;;;;;;2.00;78.88;97403.47;5094665;28;20028;-66
2021/10/29 05:18:21;;;;;;;14.70;9.48;;;;;;;1.98;79.87;97407.75;5094584;28;20115;-62
2021/10/29 05:20:48;;;;;;;13.57;9.35;;;;;;;1.99;80.31;97407.75;5094793;28;20078;-64
2021/10/29 05:23:14;;;;;;;17.35;9.35;;;;;;;2.06;80.30;97412.97;5094719;28;20028;-62
2021/10/29 05:25:40;;;;;;;11.90;8.02;;;;;;;2.17;81.02;97413.09;5094492;28;20553;-65
2021/10/29 05:28:06;;;;;;;15.45;9.65;;;;;;;2.82;81.30;97420.50;5094607;28;20028;-66
2021/10/29 05:30:32;;;;;;;10.48;6.47;;;;;;;4.23;77.75;97424.56;5094440;28;20028;-62
2021/10/29 05:32:58;;;;;;;6.65;4.97;;;;;;;5.85;71.06;97418.22;5094384;28;20104;-61
2021/10/29 05:35:24;;;;;;;9.35;4.57;;;;;;;7.35;66.05;97427.50;5094392;28;20449;-65
2021/10/29 05:37:49;;;;;;;5.10;4.57;;;;;;;8.85;61.68;97415.91;5094336;28;20382;-62
2021/10/29 05:40:15;;;;;;;10.88;4.80;;;;;;;10.08;56.63;97431.84;5094272;28;20017;-62
2021/10/29 05:42:41;;;;;;;8.20;4.82;;;;;;;11.30;53.64;97428.09;5094299;28;20478;-61
2021/10/29 05:45:10;;;;;;;7.70;5.22;;;;;;;12.18;52.30;97437.88;5094081;28;20077;-62
2021/10/29 05:47:37;;;;;;;5.20;4.35;;;;;;;12.61;49.98;97424.31;5094153;28;20032;-64
2021/10/29 05:50:05;;;;;;;7.25;4.85;;;;;;;13.35;48.47;97426.25;5094084;28;20024;-64
2021/10/29 05:52:32;;;;;;;4.95;4.30;;;;;;;14.13;46.12;97431.38;5093875;28;20024;-63
2021/10/29 05:55:14;;;;;;;6.50;4.72;;;;;;;15.24;44.39;97420.84;5093873;28;20494;-64
2021/10/29 05:57:51;;;;;;;9.70;5.00;;;;;;;16.30;41.87;97424.06;5093887;28;20055;-62
2021/10/29 06:00:22;;;;;;;6.80;4.15;;;;;;;17.08;40.16;97430.94;5093815;28;20072;-63
2021/10/29 06:02:48;;;;;;;8.27;4.43;;;;;;;17.91;38.68;97430.19;5093906;28;20022;-63
2021/10/29 06:05:16;;;;;;;6.80;4.35;;;;;;;18.69;37.02;97425.09;5093656;28;20553;-64
2021/10/29 06:07:42;;;;;;;5.60;3.95;;;;;;;19.29;35.66;97422.56;5093745;28;20045;-63
2021/10/29 06:10:13;;;;;;;4.50;3.80;;;;;;;19.56;35.37;97436.00;5093263;28;20020;-60
2021/10/29 06:12:40;;;;;;;5.10;4.28;;;;;;;20.01;34.56;97429.78;5093682;28;20030;-64
2021/10/29 06:15:08;;;;;;;6.57;3.67;;;;;;;20.65;33.85;97441.69;5093582;28;20039;-65
2021/10/29 06:17:34;;;;;;;6.00;4.18;;;;;;;21.34;32.02;97438.09;5093524;28;20021;-61
2021/10/29 06:20:01;;;;;;;6.60;5.63;;;;;;;21.86;31.49;97439.97;5093509;28;20081;-64
2021/10/29 06:22:31;;;;;;;6.30;4.60;;;;;;;22.41;30.66;97436.97;5093525;28;20422;-64
2021/10/29 06:25:05;;;;;;;10.43;4.68;;;;;;;22.94;29.81;97438.50;5093397;28;20036;-61
2021/10/29 06:30:03;;;;;;;6.32;4.68;;;;;;;23.50;29.01;97438.81;5093464;28;20031;-62
2021/10/29 06:32:30;;;;;;;5.22;4.70;;;;;;;24.07;28.24;97438.88;5093306;28;20095;-62
2021/10/29 06:35:05;;;;;;;5.55;4.82;;;;;;;24.47;27.40;97448.22;5093298;28;20024;-61
2021/10/29 06:37:32;;;;;;;5.43;4.85;;;;;;;24.90;27.13;97450.22;5092298;28;20063;-63
2021/10/29 06:39:58;;;;;;;6.70;4.60;;;;;;;25.18;27.20;97439.88;5093266;28;20032;-63
2021/10/29 06:42:34;;;;;;;6.25;4.38;;;;;;;25.49;27.21;97447.97;5093453;28;20020;-62
2021/10/29 06:45:35;;;;;;;6.43;4.80;;;;;;;25.61;26.75;97446.97;5093161;28;20031;-63
2021/10/29 07:40:08;;;;;;;5.80;5.10;;;;;;;28.19;23.58;97425.75;5054705;28;20087;-65
2021/10/29 07:42:44;;;;;;;6.35;4.57;;;;;;;28.37;23.82;97426.69;5082389;28;20040;-64
2021/10/29 07:45:12;;;;;;;7.13;5.20;;;;;;;28.60;23.42;97423.56;5096635;28;20035;-60
2021/10/29 07:47:41;;;;;;;6.65;5.10;;;;;;;28.36;23.71;97422.28;5096462;28;20019;-64
2021/10/29 07:50:09;;;;;;;5.88;4.50;;;;;;;28.15;24.18;97419.84;5096413;28;20474;-62
2021/10/29 07:52:37;;;;;;;8.35;4.85;;;;;;;27.78;25.14;97421.50;5096376;28;20036;-62
2021/10/29 07:55:08;;;;;;;8.52;4.88;;;;;;;27.27;25.71;97429.78;5096372;28;20509;-60
2021/10/29 07:57:33;;;;;;;7.20;5.35;;;;;;;26.74;25.86;97421.16;5096316;28;20028;-65
2021/10/29 07:59:59;;;;;;;8.68;5.30;;;;;;;25.75;27.02;97410.09;5096034;28;20052;-63
2021/10/29 08:02:25;;;;;;;7.53;5.07;;;;;;;24.70;27.74;97416.09;5096217;28;20032;-63
2021/10/29 08:04:52;;;;;;;5.82;5.03;;;;;;;22.95;28.64;97408.22;5096082;28;20111;-61
2021/10/29 08:07:18;;;;;;;7.45;5.20;;;;;;;21.62;30.69;97402.56;5096120;28;20028;-63
2021/10/29 08:09:45;;;;;;;7.03;4.93;;;;;;;21.01;33.38;97402.16;5096092;28;20024;-63
2021/10/29 08:12:12;;;;;;;6.80;5.13;;;;;;;20.26;33.57;97403.47;5096067;28;20026;-63
2021/10/29 08:14:38;;;;;;;9.80;6.30;;;;;;;19.12;35.01;97399.72;5096003;28;20030;-62
2021/10/29 08:17:05;;;;;;;8.07;6.10;;;;;;;18.41;36.40;97393.09;5096046;28;20047;-63
2021/10/29 08:19:32;;;;;;;7.97;5.20;;;;;;;17.83;36.82;97398.00;5095878;28;20028;-64
2021/10/29 08:22:03;;;;;;;7.10;5.40;;;;;;;17.41;38.56;97390.47;5095782;28;20462;-61
2021/10/29 08:24:30;;;;;;;9.07;5.95;;;;;;;17.10;39.34;97392.03;5095718;28;20047;-61
2021/10/29 08:26:57;;;;;;;9.68;4.95;;;;;;;16.96;40.45;97395.38;5095724;28;20028;-63
2021/10/29 08:29:23;;;;;;;8.93;6.03;;;;;;;16.98;40.07;97396.13;5095676;28;20019;-65
2021/10/29 08:31:50;;;;;;;8.80;6.05;;;;;;;16.89;40.12;97394.81;5095609;28;20032;-62
2021/10/29 08:34:17;;;;;;;9.05;5.32;;;;;;;16.84;41.38;97391.56;5095230;28;20028;-63
2021/10/29 08:36:45;;;;;;;7.32;5.30;;;;;;;16.73;41.13;97389.44;5095529;28;20377;-61
2021/10/29 08:39:11;;;;;;;9.25;5.53;;;;;;;16.48;40.52;97395.94;5095411;28;20028;-64
2021/10/29 08:41:39;;;;;;;9.50;5.32;;;;;;;16.42;41.29;97389.19;5095416;28;20028;-62
2021/10/29 08:44:06;;;;;;;7.93;5.15;;;;;;;16.14;43.71;97397.56;5095305;28;20032;-64
2021/10/29 08:46:33;;;;;;;7.50;4.55;;;;;;;16.40;42.48;97387.53;5095274;28;20085;-60
2021/10/29 08:49:00;;;;;;;8.57;5.22;;;;;;;16.52;42.88;97388.72;5095254;28;20032;-62
2021/10/29 08:51:28;;;;;;;8.02;5.10;;;;;;;16.34;42.63;97391.31;5095220;28;20474;-64
2021/10/29 08:53:56;;;;;;;7.18;4.93;;;;;;;16.27;42.81;97385.50;5095143;28;20386;-63
2021/10/29 08:56:26;;;;;;;9.88;5.28;;;;;;;16.26;41.50;97386.41;5095125;28;20557;-64
2021/10/29 09:04:55;;;;;;;5.55;4.40;;;;;;;16.36;41.06;97383.31;5095088;28;20169;-65
2021/10/29 09:07:35;;;;;;;7.35;4.35;;;;;;;16.36;42.58;97381.56;5094964;28;20043;-62
2021/10/29 09:32:55;;;;;;;7.85;4.97;;;;;;;15.37;44.48;97387.75;5094737;28;20027;-63
2021/10/29 09:35:23;;;;;;;8.50;4.35;;;;;;;15.40;44.25;97379.72;5094372;28;20076;-62
2021/10/29 09:38:00;;;;;;;8.45;4.15;;;;;;;15.54;43.27;97376.44;5094356;28;20075;-60
2021/10/29 09:40:31;;;;;;;8.95;4.28;;;;;;;15.70;42.98;97377.53;5094255;28;20503;-59
2021/10/29 09:43:02;;;;;;;8.95;4.40;;;;;;;15.80;43.29;97376.19;5094342;28;20169;-61
2021/10/29 09:45:30;;;;;;;6.80;3.78;;;;;;;15.80;43.53;97376.19;5093418;28;20105;-62
2021/10/29 09:48:17;;;;;;;5.70;3.78;;;;;;;15.82;42.53;97374.34;5094106;28;20373;-65
2021/10/29 09:50:54;;;;;;;6.43;3.47;;;;;;;15.91;41.85;97360.72;5094229;28;20500;-61
2021/10/29 09:56:11;;;;;;;5.82;3.00;;;;;;;16.12;40.21;97363.31;5094072;28;20115;-64
2021/10/29 09:58:39;;;;;;;5.50;3.53;;;;;;;15.97;39.60;97364.91;5093557;28;20048;-62
2021/10/29 10:01:05;;;;;;;5.93;3.40;;;;;;;15.94;38.87;97364.13;5093928;28;20032;-65
2021/10/29 10:03:32;;;;;;;6.30;3.60;;;;;;;15.79;40.18;97363.94;5093785;28;20032;-67
2021/10/29 10:06:00;;;;;;;7.28;3.88;;;;;;;15.72;39.44;97362.50;5092648;28;20048;-62
2021/10/29 10:08:27;;;;;;;3.22;2.72;;;;;;;15.74;40.30;97350.94;5093760;28;20477;-63
2021/10/29 10:10:54;;;;;;;4.63;3.20;;;;;;;15.75;39.55;97365.84;5092463;28;20031;-63
2021/10/29 10:13:21;;;;;;;4.00;2.88;;;;;;;15.44;39.17;97345.31;5093629;28;20099;-64
2021/10/29 10:15:50;;;;;;;6.03;3.10;;;;;;;15.26;39.90;97345.22;5093764;28;20024;-63
2021/10/29 10:18:20;;;;;;;4.03;2.63;;;;;;;15.23;39.68;97345.34;5093664;28;20032;-61
2021/10/29 10:20:53;;;;;;;4.90;3.53;;;;;;;15.10;39.95;97337.09;5093674;28;20024;-67
2021/10/29 10:23:25;;;;;;;3.90;2.83;;;;;;;15.18;41.49;97336.78;5093358;28;20039;-65
2021/10/29 10:45:36;;;;;;;5.40;2.88;;;;;;;15.33;38.65;97317.66;5093299;28;20123;-60
2021/10/29 10:48:11;;;;;;;3.20;2.70;;;;;;;15.46;38.18;97314.44;5093304;28;20039;-64
2021/10/29 10:50:43;;;;;;;5.28;3.47;;;;;;;15.59;36.56;97312.13;5093359;28;20124;-66
2021/10/29 10:53:16;;;;;;;4.43;2.75;;;;;;;15.62;37.25;97307.53;5093274;28;20031;-63
2021/10/29 11:02:20;;;;;;;6.00;2.42;;;;;;;15.47;35.46;97306.47;5099907;28;20071;-66
2021/10/29 11:07:38;;;;;;;3.90;2.10;;;;;;;15.22;35.26;97301.44;5100228;28;20039;-65
2021/10/29 11:10:07;;;;;;;3.67;2.53;;;;;;;15.22;35.05;97296.19;5099693;28;20027;-65
2021/10/29 11:12:42;;;;;;;;;;;;;;;15.10;35.39;97295.81;5100158;28;20456;-62
2021/10/29 11:15:17;;;;;;;2.85;2.53;;;;;;;15.10;36.28;97285.28;5099804;28;19912;-64
2021/10/29 11:17:47;;;;;;;7.78;2.60;;;;;;;15.03;35.46;97295.22;5099788;28;20039;-65
2021/10/29 11:20:40;;;;;;;5.67;2.80;;;;;;;14.94;35.70;97293.00;5099773;28;20034;-62
2021/10/29 11:23:09;;;;;;;4.90;2.47;;;;;;;14.91;35.62;97285.22;5077090;28;20048;-64
2021/10/29 11:25:47;;;;;;;8.05;3.70;;;;;;;15.07;36.00;97295.06;5097463;28;20044;-65
2021/10/29 11:28:13;;;;;;;3.65;2.78;;;;;;;15.04;35.25;97285.53;5099694;28;20085;-63
2021/10/29 11:30:46;;;;;;;5.38;2.40;;;;;;;14.96;35.67;97288.50;5099663;28;20389;-62
2021/10/29 11:33:14;;;;;;;3.90;2.75;;;;;;;14.86;35.88;97280.16;5099518;28;20027;-65
2021/10/29 11:35:40;;;;;;;4.55;2.90;;;;;;;14.79;36.15;97278.72;5099417;28;20028;-66
2021/10/29 11:38:09;;;;;;;4.68;3.05;;;;;;;14.85;35.63;97269.69;5099639;28;20088;-67
2021/10/29 11:40:35;;;;;;;6.57;3.47;;;;;;;14.86;37.33;97274.91;5099574;28;20028;-65
2021/10/29 11:43:01;;;;;;;3.88;2.60;;;;;;;14.80;35.97;97277.78;5099521;28;20035;-66
2021/10/29 11:45:36;;;;;;;3.42;2.50;;;;;;;14.83;36.28;97271.53;5099453;28;20465;-66
2021/10/29 11:48:03;;;;;;;6.65;2.70;;;;;;;14.87;36.48;97265.22;5099435;28;20028;-62
2021/10/29 11:50:29;;;;;;;3.63;2.28;;;;;;;14.76;37.40;97257.75;5099374;28;20028;-63
2021/10/29 11:52:57;;;;;;;5.25;3.17;;;;;;;14.86;38.40;97256.47;5099556;28;20093;-63
2021/10/29 11:55:30;;;;;;;5.90;3.22;;;;;;;14.89;36.49;97264.22;5099406;28;20377;-64
2021/10/29 11:58:19;;;;;;;3.30;2.50;;;;;;;14.91;36.65;97262.38;5099513;28;20563;-62
2021/10/29 12:01:13;;;;;;;4.93;2.58;;;;;;;14.95;36.22;97251.69;5099344;28;20115;-62
2021/10/29 12:09:33;;;;;;;3.15;2.70;;;;;;;15.11;37.61;97249.25;5095617;28;20031;-63
2021/10/29 12:12:09;;;;;;;4.50;3.33;;;;;;;15.07;37.90;97256.44;5096082;28;20096;-61
2021/10/29 12:14:37;;;;;;;4.43;2.80;;;;;;;15.01;38.86;97259.31;5095976;28;20462;-62
2021/10/29 12:17:10;;;;;;;3.00;2.40;;;;;;;15.00;38.23;97255.00;5095869;28;20470;-64
2021/10/29 12:19:40;;;;;;;4.65;3.00;;;;;;;15.00;38.84;97252.34;5095972;28;20107;-60
2021/10/29 12:22:14;;;;;;;5.90;2.90;;;;;;;15.01;39.03;97254.94;5095845;28;20032;-63
2021/10/29 12:24:46;;;;;;;3.60;2.67;;;;;;;15.07;38.58;97258.19;5095754;28;20082;-63
2021/10/29 12:27:41;;;;;;;4.47;2.95;;;;;;;15.05;38.46;97255.63;5095725;28;20038;-63
2021/10/29 12:30:28;;;;;;;7.05;2.72;;;;;;;15.02;38.62;97253.16;5095637;28;20028;-63
2021/10/29 12:37:06;;;;;;;4.13;2.72;;;;;;;14.82;39.57;97249.63;5095733;28;20089;-62
2021/10/29 13:01:39;;;;;;;4.47;3.00;;;;;;;14.68;41.06;97238.78;5095130;28;20024;-64
2021/10/29 13:04:17;;;;;;;5.03;3.53;;;;;;;14.68;41.23;97239.66;5094998;28;20032;-63
2021/10/29 13:06:49;;;;;;;5.05;3.05;;;;;;;14.66;40.98;97242.34;5094999;28;20032;-64
2021/10/29 13:09:18;;;;;;;4.60;3.53;;;;;;;14.51;40.94;97243.03;5094903;28;20020;-66
2021/10/29 13:11:49;;;;;;;5.57;3.22;;;;;;;14.44;41.26;97233.66;5094966;28;20374;-66
2021/10/29 13:14:21;;;;;;;6.90;3.30;;;;;;;14.40;41.26;97236.44;5094901;28;20449;-63
2021/10/29 13:16:48;;;;;;;5.97;3.22;;;;;;;14.37;42.03;97241.84;5094776;28;20071;-64
2021/10/29 13:38:05;;;;;;;3.50;2.85;;;;;;;14.43;42.91;97232.81;5094429;28;20039;-62
2021/10/29 13:54:29;;;;;;;5.47;3.97;;;;;;;14.14;43.32;97227.00;5094171;28;20020;-62
2021/10/29 13:57:12;;;;;;;5.32;3.17;;;;;;;14.10;44.10;97233.31;5094107;28;20085;-65
2021/10/29 14:00:12;;;;;;;4.43;3.65;;;;;;;13.91;45.00;97236.72;5093906;28;20036;-65
2021/10/29 14:02:53;;;;;;;4.15;3.28;;;;;;;13.88;44.23;97228.94;5093938;28;20081;-65
2021/10/29 14:35:00;;;;;;;7.05;3.80;;;;;;;13.83;46.24;97236.13;5093467;28;20028;-60
2021/10/29 14:37:34;;;;;;;6.53;4.18;;;;;;;13.75;45.73;97225.94;5093263;28;20035;-62
2021/10/29 14:42:37;;;;;;;8.38;3.75;;;;;;;13.74;46.29;97226.84;5093253;28;20032;-62
2021/10/29 14:45:52;;;;;;;6.18;3.72;;;;;;;13.68;46.59;97225.31;5093192;28;20118;-65
2021/10/29 15:06:28;;;;;;;6.32;3.67;;;;;;;13.04;50.03;97232.97;5093197;28;20043;-64
2021/10/29 15:25:23;;;;;;;7.70;3.65;;;;;;;11.48;54.95;97243.34;5093048;28;20097;-63
2021/10/29 15:30:28;;;;;;;6.13;3.65;;;;;;;11.03;56.48;97247.28;5092893;28;20158;-65
2021/10/29 15:46:24;;;;;;;9.10;4.30;;;;;;;9.96;59.19;97249.13;5096629;28;20432;-65
2021/10/29 15:51:28;;;;;;;9.75;4.22;;;;;;;9.65;60.03;97258.56;5096485;28;20478;-63
2021/10/29 15:53:54;;;;;;;6.35;4.15;;;;;;;9.57;60.06;97252.66;5096418;28;20024;-60
2021/10/29 16:01:17;;;;;;;6.78;4.07;;;;;;;9.28;60.75;97262.84;5096324;28;20059;-61
2021/10/29 16:03:55;;;;;;;6.45;3.75;;;;;;;9.17;61.08;97267.41;5096225;28;20436;-63
2021/10/29 16:17:17;;;;;;;7.13;4.72;;;;;;;8.55;63.35;97277.31;5096387;28;20530;-66
2021/10/29 16:19:43;;;;;;;6.10;3.80;;;;;;;8.44;63.82;97278.34;5095884;28;20107;-62
2021/10/29 16:22:16;;;;;;;5.25;4.32;;;;;;;8.41;63.44;97278.38;5095871;28;20016;-62
2021/10/29 16:24:49;;;;;;;9.60;4.47;;;;;;;8.30;64.00;97280.31;5095784;28;20071;-61
2021/10/29 16:27:16;;;;;;;12.05;4.35;;;;;;;8.26;64.42;97283.84;5095877;28;20428;-62